createdAt,value
2023-02-22T00:01:42.985Z,100301.91
2023-02-22T00:04:11.047Z,100304.16
2023-02-22T00:06:37.829Z,100300.59
2023-02-22T00:09:05.007Z,100309.13
2023-02-22T00:11:31.815Z,100302.38
2023-02-22T00:13:59.036Z,100300.94
2023-02-22T00:16:26.773Z,100301.94
2023-02-22T00:18:54.566Z,100309.25
2023-02-22T00:21:21.841Z,100309.66
2023-02-22T00:23:49.652Z,100309.22
2023-02-22T00:26:21.506Z,100318.47
2023-02-22T00:28:50.929Z,100317.69
2023-02-22T00:31:19.536Z,100317.41
2023-02-22T00:33:46.767Z,100321.63
2023-02-22T00:36:14.310Z,100317.63
2023-02-22T00:38:42.043Z,100319.63
2023-02-22T00:41:09.986Z,100318.84
2023-02-22T00:43:37.045Z,100322.50
2023-02-22T00:46:04.068Z,100326.53
2023-02-22T00:48:31.155Z,100331.38
2023-02-22T00:50:57.993Z,100324.66
2023-02-22T00:53:26.300Z,100334.44
2023-02-22T00:55:54.145Z,100328.50
2023-02-22T00:58:21.619Z,100327.66
2023-02-22T01:00:49.850Z,100327.03
2023-02-22T01:03:20.024Z,100321.25
2023-02-22T01:05:47.536Z,100323.19
2023-02-22T01:08:16.327Z,100324.88
2023-02-22T01:10:43.858Z,100318.09
2023-02-22T01:13:12.825Z,100316.94
2023-02-22T01:15:42.785Z,100316.84
2023-02-22T01:18:12.593Z,100308.88
2023-02-22T01:20:39.559Z,100314.47
2023-02-22T01:23:08.067Z,100309.13
2023-02-22T01:25:35.815Z,100320.56
2023-02-22T01:28:04.938Z,100315.06
2023-02-22T01:30:34.558Z,100314.84
2023-02-22T01:33:04.013Z,100320.53
2023-02-22T01:35:34.361Z,100315.00
2023-02-22T01:38:01.669Z,100308.56
2023-02-22T01:40:34.217Z,100310.28
2023-02-22T01:43:14.642Z,100307.66
2023-02-22T01:45:50.051Z,100304.72
2023-02-22T01:48:24.897Z,100305.56
2023-02-22T01:50:57.237Z,100309.34
2023-02-22T01:53:30.440Z,100311.28
2023-02-22T01:55:58.510Z,100313.94
2023-02-22T01:58:28.633Z,100308.88
2023-02-22T02:00:55.839Z,100307.72
2023-02-22T02:03:27.739Z,100310.38
2023-02-22T02:05:59.006Z,100304.25
2023-02-22T02:08:36.836Z,100300.63
2023-02-22T02:11:08.689Z,100298.84
2023-02-22T02:13:36.766Z,100306.09
2023-02-22T02:16:03.998Z,100305.34
2023-02-22T02:18:32.598Z,100301.28
2023-02-22T02:21:14.745Z,100303.06
2023-02-22T02:23:55.083Z,100304.09
2023-02-22T02:26:40.601Z,100306.63
2023-02-22T02:29:40.876Z,100299.81
2023-02-22T02:32:30.041Z,100300.09
2023-02-22T02:35:23.162Z,100299.28
2023-02-22T02:38:12.149Z,100304.22
2023-02-22T02:40:47.648Z,100298.31
2023-02-22T02:43:51.928Z,100305.56
2023-02-22T02:46:32.387Z,100301.47
2023-02-22T02:49:04.559Z,100307.09
2023-02-22T02:51:36.666Z,100302.06
2023-02-22T02:54:05.839Z,100305.09
2023-02-22T02:56:33.444Z,100308.81
2023-02-22T02:59:00.253Z,100302.25
2023-02-22T03:01:56.355Z,100309.28
2023-02-22T03:04:34.397Z,100310.50
2023-02-22T03:07:20.268Z,100311.28
2023-02-22T03:09:54.787Z,100308.66
2023-02-22T03:12:53.655Z,100311.03
2023-02-22T03:15:40.065Z,100311.13
2023-02-22T03:18:22.906Z,100309.44
2023-02-22T03:21:00.317Z,100304.19
2023-02-22T03:23:37.527Z,100299.59
2023-02-22T03:26:19.441Z,100306.59
2023-02-22T03:28:49.088Z,100303.88
2023-02-22T03:31:29.745Z,100302.72
2023-02-22T03:34:02.732Z,100313.13
2023-02-22T03:36:33.915Z,100306.25
2023-02-22T03:39:04.342Z,100313.34
2023-02-22T03:41:33.336Z,100307.25
2023-02-22T03:44:03.145Z,100309.03
2023-02-22T03:46:31.591Z,100306.31
2023-02-22T03:49:35.000Z,100312.59
2023-02-22T03:52:03.896Z,100306.63
2023-02-22T03:54:32.177Z,100310.09
2023-02-22T03:57:15.123Z,100321.72
2023-02-22T03:59:43.006Z,100318.06
2023-02-22T04:02:09.773Z,100330.16
2023-02-22T04:04:36.890Z,100325.75
2023-02-22T04:07:03.747Z,100323.13
2023-02-22T04:09:30.854Z,100331.84
2023-02-22T04:11:57.646Z,100328.16
2023-02-22T04:14:24.709Z,100323.44
2023-02-22T04:16:51.543Z,100328.50
2023-02-22T04:19:18.642Z,100334.84
2023-02-22T04:21:45.432Z,100325.25
2023-02-22T04:24:12.556Z,100335.84
2023-02-22T04:26:39.325Z,100331.44
2023-02-22T04:29:06.545Z,100321.03
2023-02-22T04:31:36.224Z,100327.53
2023-02-22T04:34:03.601Z,100324.13
2023-02-22T04:36:31.889Z,100320.78
2023-02-22T04:38:59.777Z,100316.38
2023-02-22T04:41:26.744Z,100314.59
2023-02-22T04:43:54.018Z,100323.59
2023-02-22T04:46:20.933Z,100323.59
2023-02-22T04:48:48.078Z,100325.72
2023-02-22T04:51:15.710Z,100338.25
2023-02-22T04:53:42.983Z,100334.44
2023-02-22T04:56:09.799Z,100333.81
2023-02-22T04:58:36.883Z,100346.41
2023-02-22T05:01:04.012Z,100343.22
2023-02-22T05:03:31.807Z,100337.41
2023-02-22T05:05:58.810Z,100342.53
2023-02-22T05:08:25.859Z,100335.09
2023-02-22T05:10:52.645Z,100331.59
2023-02-22T05:13:19.888Z,100338.94
2023-02-22T05:15:47.840Z,100331.84
2023-02-22T05:18:16.353Z,100339.63
2023-02-22T05:20:43.166Z,100352.69
2023-02-22T05:23:10.384Z,100337.28
2023-02-22T05:25:37.200Z,100345.94
2023-02-22T05:28:12.681Z,100350.00
2023-02-22T05:30:40.177Z,100350.41
2023-02-22T05:33:08.323Z,100354.25
2023-02-22T05:35:35.137Z,100355.19
2023-02-22T05:38:03.732Z,100361.56
2023-02-22T05:40:31.639Z,100359.16
2023-02-22T05:42:59.452Z,100365.38
2023-02-22T05:45:27.604Z,100366.31
2023-02-22T05:47:55.404Z,100373.59
2023-02-22T05:50:22.446Z,100380.53
2023-02-22T05:52:49.555Z,100378.72
2023-02-22T05:55:18.836Z,100386.44
2023-02-22T05:57:48.333Z,100384.38
2023-02-22T06:00:19.956Z,100391.72
2023-02-22T06:02:47.021Z,100395.84
2023-02-22T06:05:14.028Z,100394.56
2023-02-22T06:07:41.085Z,100402.91
2023-02-22T06:10:08.472Z,100402.19
2023-02-22T06:12:35.542Z,100410.44
2023-02-22T06:15:02.693Z,100404.72
2023-02-22T06:17:30.483Z,100403.66
2023-02-22T06:19:57.575Z,100420.06
2023-02-22T06:22:24.594Z,100416.06
2023-02-22T06:24:52.214Z,100419.44
2023-02-22T06:27:20.488Z,100423.44
2023-02-22T06:29:48.056Z,100424.75
2023-02-22T06:32:15.119Z,100423.75
2023-02-22T06:34:42.004Z,100425.06
2023-02-22T06:37:09.080Z,100421.00
2023-02-22T06:39:35.814Z,100427.34
2023-02-22T06:42:02.958Z,100425.25
2023-02-22T06:44:29.819Z,100425.66
2023-02-22T06:46:56.956Z,100424.34
2023-02-22T06:49:23.841Z,100422.00
2023-02-22T06:51:50.999Z,100431.50
2023-02-22T06:54:17.820Z,100425.53
2023-02-22T06:56:45.305Z,100425.00
2023-02-22T06:59:12.102Z,100433.06
2023-02-22T07:01:42.926Z,100430.22
2023-02-22T07:04:10.304Z,100427.34
2023-02-22T07:06:37.576Z,100425.63
2023-02-22T07:09:04.394Z,100420.44
2023-02-22T07:11:31.663Z,100430.72
2023-02-22T07:13:58.446Z,100432.59
2023-02-22T07:16:25.551Z,100428.22
2023-02-22T07:18:52.380Z,100430.75
2023-02-22T07:21:19.594Z,100428.72
2023-02-22T07:23:57.045Z,100425.84
2023-02-22T07:26:24.685Z,100425.06
2023-02-22T07:28:51.646Z,100430.84
2023-02-22T07:31:18.954Z,100424.91
2023-02-22T07:33:49.445Z,100429.00
2023-02-22T07:36:18.104Z,100428.56
2023-02-22T07:38:45.675Z,100429.34
2023-02-22T07:41:13.185Z,100426.31
2023-02-22T07:43:39.995Z,100429.97
2023-02-22T07:46:07.113Z,100433.28
2023-02-22T07:48:33.949Z,100432.38
2023-02-22T07:51:01.032Z,100429.78
2023-02-22T07:53:30.604Z,100426.75
2023-02-22T07:55:58.613Z,100437.38
2023-02-22T07:58:27.385Z,100436.97
2023-02-22T08:00:54.868Z,100428.13
2023-02-22T08:03:24.169Z,100430.97
2023-02-22T08:05:56.939Z,100430.03
2023-02-22T08:08:24.324Z,100425.22
2023-02-22T08:10:52.162Z,100429.00
2023-02-22T08:13:20.886Z,100429.03
2023-02-22T08:15:50.456Z,100427.81
2023-02-22T08:18:19.697Z,100433.28
2023-02-22T08:20:49.455Z,100429.88
2023-02-22T08:23:17.250Z,100430.28
2023-02-22T08:25:44.589Z,100431.59
2023-02-22T08:28:15.138Z,100433.38
2023-02-22T08:30:43.764Z,100425.38
2023-02-22T08:33:16.811Z,100425.81
2023-02-22T08:35:44.042Z,100438.13
2023-02-22T08:38:19.857Z,100434.44
2023-02-22T08:40:50.983Z,100441.13
2023-02-22T08:43:19.601Z,100432.88
2023-02-22T08:45:47.587Z,100430.31
2023-02-22T08:48:16.007Z,100440.38
2023-02-22T08:50:44.471Z,100437.44
2023-02-22T08:53:13.632Z,100437.19
2023-02-22T08:55:42.000Z,100443.16
2023-02-22T08:58:10.044Z,100439.84
2023-02-22T09:00:39.184Z,100442.06
2023-02-22T09:03:09.487Z,100443.84
2023-02-22T09:05:36.760Z,100434.63
2023-02-22T09:08:04.526Z,100444.28
2023-02-22T09:10:33.731Z,100438.75
2023-02-22T09:13:01.456Z,100438.66
2023-02-22T09:15:29.891Z,100446.84
2023-02-22T09:17:57.138Z,100431.47
2023-02-22T09:20:25.419Z,100437.97
2023-02-22T09:22:53.473Z,100433.00
2023-02-22T09:25:21.769Z,100431.91
2023-02-22T09:27:51.336Z,100437.75
2023-02-22T09:30:34.187Z,100432.97
2023-02-22T09:33:04.059Z,100439.22
2023-02-22T09:35:31.426Z,100426.53
2023-02-22T09:38:00.282Z,100435.41
2023-02-22T09:40:30.546Z,100428.09
2023-02-22T09:43:16.394Z,100426.00
2023-02-22T09:46:13.623Z,100422.41
2023-02-22T09:48:52.694Z,100423.56
2023-02-22T09:51:21.782Z,100433.00
2023-02-22T09:53:52.329Z,100419.84
2023-02-22T09:56:20.950Z,100427.78
2023-02-22T09:58:52.697Z,100423.38
2023-02-22T10:01:35.007Z,100430.47
2023-02-22T10:04:36.634Z,100428.84
2023-02-22T10:07:30.816Z,100429.38
2023-02-22T10:09:58.705Z,100429.25
2023-02-22T10:12:33.773Z,100426.25
2023-02-22T10:15:18.737Z,100427.03
2023-02-22T10:18:16.609Z,100424.50
2023-02-22T10:20:57.785Z,100422.13
2023-02-22T10:23:42.843Z,100412.81
2023-02-22T10:26:17.735Z,100419.66
2023-02-22T10:28:47.738Z,100407.66
2023-02-22T10:31:42.358Z,100399.09
2023-02-22T10:34:33.349Z,100385.69
2023-02-22T10:37:23.955Z,100391.47
2023-02-22T10:39:56.885Z,100399.44
2023-02-22T10:42:27.228Z,100397.69
2023-02-22T10:44:54.441Z,100397.44
2023-02-22T10:47:22.168Z,100397.22
2023-02-22T10:49:53.637Z,100396.81
2023-02-22T10:52:40.813Z,100395.78
2023-02-22T10:55:15.545Z,100399.63
2023-02-22T10:57:46.580Z,100390.97
2023-02-22T11:00:20.910Z,100389.72
2023-02-22T11:02:57.233Z,100386.03
2023-02-22T11:05:32.409Z,100382.94
2023-02-22T11:08:20.674Z,100386.91
2023-02-22T11:10:54.409Z,100384.25
2023-02-22T11:13:26.521Z,100379.50
2023-02-22T11:16:00.779Z,100374.38
2023-02-22T11:18:31.942Z,100377.78
2023-02-22T11:21:12.458Z,100369.63
2023-02-22T11:23:44.295Z,100373.34
2023-02-22T11:26:16.833Z,100372.09
2023-02-22T11:28:51.016Z,100367.94
2023-02-22T11:31:22.460Z,100368.38
2023-02-22T11:34:02.113Z,100368.53
2023-02-22T11:36:30.945Z,100366.13
2023-02-22T11:39:00.750Z,100364.75
2023-02-22T11:41:30.642Z,100370.59
2023-02-22T11:44:21.687Z,100368.38
2023-02-22T11:46:49.547Z,100369.31
2023-02-22T11:49:17.689Z,100373.50
2023-02-22T11:51:53.752Z,100358.19
2023-02-22T11:54:33.528Z,100366.88
2023-02-22T11:57:42.405Z,100362.75
2023-02-22T12:00:24.639Z,100361.81
2023-02-22T12:03:28.693Z,100364.97
2023-02-22T12:06:10.587Z,100356.50
2023-02-22T12:08:46.607Z,100358.81
2023-02-22T12:11:41.080Z,100359.69
2023-02-22T12:14:14.156Z,100353.31
2023-02-22T12:17:30.919Z,100344.13
2023-02-22T12:20:10.295Z,100348.59
2023-02-22T12:22:43.471Z,100354.16
2023-02-22T12:25:21.572Z,100349.41
2023-02-22T12:27:57.174Z,100349.84
2023-02-22T12:30:28.917Z,100346.38
2023-02-22T12:33:00.236Z,100345.41
2023-02-22T12:35:34.828Z,100349.94
2023-02-22T12:38:13.584Z,100335.34
2023-02-22T12:40:58.897Z,100337.34
2023-02-22T12:44:01.699Z,100336.50
2023-02-22T12:46:44.158Z,100333.75
2023-02-22T12:49:41.548Z,100329.19
2023-02-22T12:52:42.151Z,100318.81
2023-02-22T12:55:21.314Z,100311.13
2023-02-22T12:57:59.541Z,100316.94
2023-02-22T13:00:34.624Z,100312.56
2023-02-22T13:03:13.381Z,100311.13
2023-02-22T13:05:52.279Z,100314.59
2023-02-22T13:08:25.443Z,100320.22
2023-02-22T13:10:58.263Z,100308.78
2023-02-22T13:13:33.713Z,100318.59
2023-02-22T13:16:27.448Z,100310.13
2023-02-22T13:18:58.404Z,100315.09
2023-02-22T13:21:49.597Z,100310.94
2023-02-22T13:24:23.713Z,100304.31
2023-02-22T13:27:23.129Z,100317.75
2023-02-22T13:29:57.456Z,100320.28
2023-02-22T13:33:07.854Z,100315.09
2023-02-22T13:35:48.769Z,100312.38
2023-02-22T13:38:26.188Z,100301.16
2023-02-22T13:41:15.572Z,100304.88
2023-02-22T13:43:52.223Z,100300.28
2023-02-22T13:46:44.156Z,100311.28
2023-02-22T13:49:29.501Z,100300.63
2023-02-22T13:52:13.181Z,100315.94
2023-02-22T13:54:47.039Z,100316.47
2023-02-22T13:57:38.023Z,100312.47
2023-02-22T14:00:18.097Z,100312.56
2023-02-22T14:03:08.989Z,100308.34
2023-02-22T14:05:49.742Z,100308.44
2023-02-22T14:08:19.961Z,100309.59
2023-02-22T14:10:51.170Z,100308.56
2023-02-22T14:13:23.513Z,100311.72
2023-02-22T14:16:02.527Z,100308.00
2023-02-22T14:18:35.153Z,100306.44
2023-02-22T14:21:07.805Z,100308.78
2023-02-22T14:23:42.181Z,100305.06
2023-02-22T14:26:14.052Z,100303.72
2023-02-22T14:28:52.515Z,100302.41
2023-02-22T14:31:36.077Z,100304.53
2023-02-22T14:34:06.405Z,100306.94
2023-02-22T14:36:51.908Z,100305.03
2023-02-22T14:39:51.503Z,100299.53
2023-02-22T14:42:21.382Z,100298.19
2023-02-22T14:44:48.909Z,100304.63
2023-02-22T14:47:29.588Z,100303.38
2023-02-22T14:50:13.080Z,100302.63
2023-02-22T14:52:43.336Z,100306.91
2023-02-22T14:55:20.056Z,100302.16
2023-02-22T14:57:59.303Z,100298.06
2023-02-22T15:00:38.279Z,100290.44
2023-02-22T15:03:05.113Z,100294.34
2023-02-22T15:05:38.553Z,100289.38
2023-02-22T15:08:08.358Z,100300.59
2023-02-22T15:10:45.829Z,100287.06
2023-02-22T15:13:27.159Z,100293.84
2023-02-22T15:16:01.803Z,100294.69
2023-02-22T15:18:41.735Z,100291.59
2023-02-22T15:21:17.927Z,100291.09
2023-02-22T15:23:54.875Z,100290.09
2023-02-22T15:26:37.279Z,100289.25
2023-02-22T15:29:15.295Z,100289.56
2023-02-22T15:31:48.329Z,100294.66
2023-02-22T15:34:15.467Z,100295.25
2023-02-22T15:36:44.888Z,100293.16
2023-02-22T15:39:43.803Z,100293.25
2023-02-22T15:42:20.885Z,100291.06
2023-02-22T15:44:49.910Z,100282.06
2023-02-22T15:47:22.681Z,100293.38
2023-02-22T15:50:17.593Z,100285.56
2023-02-22T15:53:21.665Z,100280.47
2023-02-22T15:55:55.057Z,100284.91
2023-02-22T15:58:23.896Z,100286.81
2023-02-22T16:01:01.184Z,100280.47
2023-02-22T16:03:45.001Z,100284.91
2023-02-22T16:06:35.597Z,100283.84
2023-02-22T16:09:14.772Z,100290.00
2023-02-22T16:11:46.657Z,100286.91
2023-02-22T16:14:42.925Z,100288.28
2023-02-22T16:17:24.803Z,100286.47
2023-02-22T16:19:53.025Z,100290.81
2023-02-22T16:22:35.446Z,100298.56
2023-02-22T16:25:21.618Z,100295.94
2023-02-22T16:27:59.827Z,100300.16
2023-02-22T16:30:32.423Z,100307.06
2023-02-22T16:33:00.896Z,100306.34
2023-02-22T16:35:29.400Z,100310.56
2023-02-22T16:38:00.481Z,100306.25
2023-02-22T16:40:34.643Z,100304.88
2023-02-22T16:43:04.810Z,100306.84
2023-02-22T16:45:32.397Z,100311.28
2023-02-22T16:48:00.292Z,100311.50
2023-02-22T16:50:27.450Z,100307.22
2023-02-22T16:52:58.580Z,100316.31
2023-02-22T16:55:26.831Z,100322.22
2023-02-22T16:57:56.978Z,100323.06
2023-02-22T17:00:34.061Z,100324.25
2023-02-22T17:03:05.611Z,100318.50
2023-02-22T17:05:37.688Z,100329.22
2023-02-22T17:08:04.920Z,100340.47
2023-02-22T17:10:32.849Z,100328.88
2023-02-22T17:13:12.735Z,100333.50
2023-02-22T17:15:48.204Z,100324.91
2023-02-22T17:18:17.079Z,100323.78
2023-02-22T17:20:45.026Z,100325.19
2023-02-22T17:23:12.534Z,100323.88
2023-02-22T17:25:44.392Z,100327.84
2023-02-22T17:28:12.788Z,100331.78
2023-02-22T17:30:41.402Z,100334.72
2023-02-22T17:33:10.008Z,100331.53
2023-02-22T17:35:39.359Z,100330.56
2023-02-22T17:38:06.765Z,100324.81
2023-02-22T17:40:36.416Z,100321.56
2023-02-22T17:43:04.039Z,100326.09
2023-02-22T17:45:31.353Z,100326.84
2023-02-22T17:48:01.004Z,100323.22
2023-02-22T17:50:28.173Z,100328.66
2023-02-22T17:52:54.967Z,100323.00
2023-02-22T17:55:22.246Z,100326.91
2023-02-22T17:57:58.219Z,100327.00
2023-02-22T18:00:34.374Z,100338.16
2023-02-22T18:03:04.181Z,100334.97
2023-02-22T18:05:35.156Z,100334.19
2023-02-22T18:08:01.952Z,100331.03
2023-02-22T18:10:28.995Z,100333.63
2023-02-22T18:12:56.807Z,100335.91
2023-02-22T18:15:28.243Z,100325.81
2023-02-22T18:17:56.064Z,100326.75
2023-02-22T18:20:38.239Z,100324.47
2023-02-22T18:23:10.083Z,100334.25
2023-02-22T18:25:38.184Z,100327.53
2023-02-22T18:28:06.384Z,100332.13
2023-02-22T18:30:35.930Z,100328.97
2023-02-22T18:33:04.021Z,100328.63
2023-02-22T18:35:31.617Z,100331.91
2023-02-22T18:37:58.465Z,100333.09
2023-02-22T18:40:25.509Z,100338.69
2023-02-22T18:42:52.270Z,100339.88
2023-02-22T18:45:20.345Z,100340.28
2023-02-22T18:47:47.150Z,100340.28
2023-02-22T18:50:17.242Z,100337.75
2023-02-22T18:52:45.918Z,100338.25
2023-02-22T18:55:18.697Z,100331.97
2023-02-22T18:57:47.012Z,100342.22
2023-02-22T19:00:23.199Z,100339.00
2023-02-22T19:02:50.599Z,100342.56
2023-02-22T19:05:17.491Z,100349.84
2023-02-22T19:07:45.200Z,100339.00
2023-02-22T19:10:12.189Z,100345.34
2023-02-22T19:12:39.242Z,100338.72
2023-02-22T19:15:06.144Z,100335.34
2023-02-22T19:17:36.431Z,100346.00
2023-02-22T19:20:09.982Z,100345.25
2023-02-22T19:25:08.839Z,100354.75
2023-02-22T19:27:36.038Z,100354.69
2023-02-22T19:30:04.650Z,100354.06
2023-02-22T19:32:33.578Z,100353.13
2023-02-22T19:35:06.799Z,100350.59
2023-02-22T19:37:35.641Z,100355.44
2023-02-22T19:40:06.878Z,100360.00
2023-02-22T19:42:33.970Z,100358.25
2023-02-22T19:45:01.016Z,100353.03
2023-02-22T19:47:28.176Z,100361.88
2023-02-22T19:49:57.198Z,100363.75
2023-02-22T19:52:28.265Z,100367.56
2023-02-22T19:54:55.058Z,100375.41
2023-02-22T19:57:24.248Z,100363.88
2023-02-22T19:59:51.300Z,100373.44
2023-02-22T20:02:18.422Z,100367.56
2023-02-22T20:04:45.525Z,100373.34
2023-02-22T20:07:12.564Z,100362.84
2023-02-22T20:09:40.321Z,100355.88
2023-02-22T20:12:08.133Z,100361.91
2023-02-22T20:14:35.427Z,100367.94
2023-02-22T20:17:04.417Z,100367.09
2023-02-22T20:19:31.226Z,100368.88
2023-02-22T20:22:00.254Z,100362.69
2023-02-22T20:24:27.776Z,100367.00
2023-02-22T20:26:57.176Z,100357.25
2023-02-22T20:29:29.680Z,100355.56
2023-02-22T20:31:58.128Z,100361.75
2023-02-22T20:34:26.506Z,100366.31
2023-02-22T20:36:53.992Z,100362.75
2023-02-22T20:39:20.782Z,100357.75
2023-02-22T20:41:48.042Z,100355.03
2023-02-22T20:44:17.505Z,100355.34
2023-02-22T20:46:45.871Z,100361.63
2023-02-22T20:49:18.940Z,100368.91
2023-02-22T20:51:48.037Z,100366.06
2023-02-22T20:54:16.267Z,100368.59
2023-02-22T20:56:45.145Z,100368.91
2023-02-22T20:59:14.904Z,100367.44
2023-02-22T21:01:42.317Z,100372.56
2023-02-22T21:04:11.124Z,100366.88
2023-02-22T21:06:39.706Z,100369.31
2023-02-22T21:09:08.859Z,100368.31
2023-02-22T21:11:36.001Z,100370.34
2023-02-22T21:14:03.444Z,100372.81
2023-02-22T21:16:35.292Z,100374.50
2023-02-22T21:19:04.956Z,100381.41
2023-02-22T21:21:32.091Z,100373.41
2023-02-22T21:24:02.731Z,100372.03
2023-02-22T21:26:33.501Z,100370.50
2023-02-22T21:29:04.681Z,100370.56
2023-02-22T21:31:34.022Z,100372.28
2023-02-22T21:34:01.354Z,100374.75
2023-02-22T21:36:28.879Z,100371.09
2023-02-22T21:38:57.981Z,100377.00
2023-02-22T21:41:28.933Z,100376.84
2023-02-22T21:43:58.245Z,100373.44
2023-02-22T21:46:29.528Z,100378.88
2023-02-22T21:48:58.713Z,100377.16
2023-02-22T21:51:31.442Z,100380.88
2023-02-22T21:54:03.959Z,100382.44
2023-02-22T21:56:35.354Z,100384.13
2023-02-22T21:59:06.208Z,100377.84
2023-02-22T22:01:36.645Z,100378.78
2023-02-22T22:04:04.930Z,100377.69
2023-02-22T22:06:34.541Z,100380.16
2023-02-22T22:09:04.118Z,100381.72
2023-02-22T22:11:31.204Z,100367.63
2023-02-22T22:13:59.660Z,100384.22
2023-02-22T22:16:29.784Z,100373.44
2023-02-22T22:18:57.174Z,100369.19
2023-02-22T22:21:24.657Z,100369.50
2023-02-22T22:23:55.996Z,100370.66
2023-02-22T22:26:25.180Z,100374.22
2023-02-22T22:28:56.019Z,100376.63
2023-02-22T22:31:26.105Z,100371.69
2023-02-22T22:33:54.374Z,100380.41
2023-02-22T22:36:22.832Z,100376.19
2023-02-22T22:38:52.575Z,100377.94
2023-02-22T22:41:21.928Z,100378.94
2023-02-22T22:43:48.826Z,100377.34
2023-02-22T22:46:17.715Z,100376.59
2023-02-22T22:48:47.307Z,100371.50
2023-02-22T22:51:18.436Z,100383.78
2023-02-22T22:53:47.488Z,100383.34
2023-02-22T22:56:29.203Z,100376.44
2023-02-22T22:58:58.044Z,100378.44
2023-02-22T23:01:34.235Z,100388.19
2023-02-22T23:04:04.477Z,100379.38
2023-02-22T23:06:34.507Z,100389.03
2023-02-22T23:09:11.166Z,100381.31
2023-02-22T23:11:44.740Z,100382.00
2023-02-22T23:14:22.070Z,100382.00
2023-02-22T23:16:51.024Z,100383.00
2023-02-22T23:19:19.412Z,100397.59
2023-02-22T23:21:48.736Z,100395.03
2023-02-22T23:24:19.901Z,100382.63
2023-02-22T23:26:50.640Z,100395.88
2023-02-22T23:29:20.298Z,100397.03
2023-02-22T23:31:48.767Z,100394.28
2023-02-22T23:34:24.089Z,100392.41
2023-02-22T23:36:54.336Z,100392.50
2023-02-22T23:39:22.512Z,100390.94
2023-02-22T23:41:51.111Z,100397.28
2023-02-22T23:44:17.984Z,100397.19
2023-02-22T23:46:48.230Z,100399.25
2023-02-22T23:49:20.168Z,100401.41
2023-02-22T23:51:47.646Z,100398.91
2023-02-22T23:54:19.271Z,100395.72
2023-02-22T23:56:56.182Z,100396.53
2023-02-22T23:59:25.320Z,100399.00
